createdAt,value
2022-12-03T00:00:49.625Z,102099.31
2022-12-03T00:03:17.606Z,102100.13
2022-12-03T00:05:48.776Z,102095.59
2022-12-03T00:08:16.738Z,102095.28
2022-12-03T00:10:43.693Z,102087.81
2022-12-03T00:13:10.682Z,102089.28
2022-12-03T00:15:37.579Z,102090.88
2022-12-03T00:18:04.513Z,102090.09
2022-12-03T00:20:31.381Z,102075.50
2022-12-03T00:22:58.194Z,102088.16
2022-12-03T00:25:25.223Z,102090.75
2022-12-03T00:27:52.335Z,102075.19
2022-12-03T00:30:19.332Z,102077.13
2022-12-03T00:32:46.146Z,102078.59
2022-12-03T00:35:12.975Z,102079.72
2022-12-03T00:37:39.802Z,102073.72
2022-12-03T00:40:07.510Z,102072.59
2022-12-03T00:42:34.542Z,102072.09
2022-12-03T00:45:01.585Z,102066.13
2022-12-03T00:47:28.409Z,102068.38
2022-12-03T00:49:55.420Z,102071.75
2022-12-03T00:52:22.285Z,102077.28
2022-12-03T00:54:49.399Z,102072.91
2022-12-03T00:57:16.409Z,102071.13
2022-12-03T00:59:43.405Z,102073.72
2022-12-03T01:02:10.548Z,102065.63
2022-12-03T01:04:37.523Z,102074.84
2022-12-03T01:07:04.627Z,102067.56
2022-12-03T01:09:31.678Z,102073.56
2022-12-03T01:11:58.984Z,102068.38
2022-12-03T01:14:25.820Z,102082.00
2022-12-03T01:16:52.874Z,102068.88
2022-12-03T01:19:19.868Z,102062.06
2022-12-03T01:21:49.095Z,102070.31
2022-12-03T01:24:19.118Z,102072.59
2022-12-03T01:26:46.169Z,102073.41
2022-12-03T01:29:13.968Z,102065.47
2022-12-03T01:31:59.766Z,102073.25
2022-12-03T01:34:26.846Z,102076.94
2022-12-03T01:36:54.747Z,102073.06
2022-12-03T01:39:21.734Z,102075.03
2022-12-03T01:41:51.495Z,102069.03
2022-12-03T01:44:24.680Z,102069.16
2022-12-03T01:46:56.056Z,102073.06
2022-12-03T01:49:38.643Z,102065.13
2022-12-03T01:52:06.133Z,102077.63
2022-12-03T01:54:39.998Z,102064.50
2022-12-03T01:57:22.183Z,102071.63
2022-12-03T01:59:50.522Z,102064.50
2022-12-03T02:02:23.282Z,102066.28
2022-12-03T02:04:52.998Z,102068.06
2022-12-03T02:07:32.196Z,102066.28
2022-12-03T02:10:01.739Z,102061.09
2022-12-03T02:12:47.753Z,102063.50
2022-12-03T02:15:15.211Z,102064.16
2022-12-03T02:17:43.181Z,102059.94
2022-12-03T02:20:11.927Z,102061.41
2022-12-03T02:23:07.649Z,102058.97
2022-12-03T02:25:36.600Z,102061.41
2022-12-03T02:28:06.174Z,102060.28
2022-12-03T02:30:34.460Z,102054.47
2022-12-03T02:33:02.437Z,102055.75
2022-12-03T02:35:34.215Z,102049.41
2022-12-03T02:38:09.419Z,102054.94
2022-12-03T02:40:37.139Z,102055.75
2022-12-03T02:43:05.943Z,102048.44
2022-12-03T02:45:42.516Z,102054.59
2022-12-03T02:48:23.339Z,102046.66
2022-12-03T02:50:57.341Z,102048.78
2022-12-03T02:53:35.671Z,102049.41
2022-12-03T02:56:04.283Z,102047.16
2022-12-03T02:58:33.907Z,102044.69
2022-12-03T03:01:04.211Z,102042.44
2022-12-03T03:03:33.272Z,102041.63
2022-12-03T03:06:03.328Z,102037.25
2022-12-03T03:08:31.642Z,102043.75
2022-12-03T03:11:01.897Z,102042.44
2022-12-03T03:13:32.156Z,102041.81
2022-12-03T03:15:59.328Z,102042.09
2022-12-03T03:18:26.249Z,102038.72
2022-12-03T03:20:53.561Z,102041.47
2022-12-03T03:23:22.575Z,102024.94
2022-12-03T03:25:57.376Z,102030.28
2022-12-03T03:28:25.556Z,102024.94
2022-12-03T03:30:53.199Z,102018.94
2022-12-03T03:33:20.767Z,102031.09
2022-12-03T03:35:49.132Z,102023.31
2022-12-03T03:38:20.704Z,102022.53
2022-12-03T03:40:50.966Z,102025.75
2022-12-03T03:43:21.918Z,102021.38
2022-12-03T03:45:52.143Z,102014.56
2022-12-03T03:48:21.369Z,102017.50
2022-12-03T03:50:50.736Z,102026.41
2022-12-03T03:53:20.625Z,102014.25
2022-12-03T03:55:47.815Z,102013.94
2022-12-03T03:58:14.809Z,102011.66
2022-12-03T04:00:46.069Z,102013.75
2022-12-03T04:03:13.915Z,102007.47
2022-12-03T04:05:41.019Z,102011.34
2022-12-03T04:08:07.988Z,102008.13
2022-12-03T04:10:53.594Z,102013.28
2022-12-03T04:13:20.595Z,102007.13
2022-12-03T04:15:47.638Z,102005.19
2022-12-03T04:18:32.787Z,102006.47
2022-12-03T04:21:18.486Z,102005.53
2022-12-03T04:23:45.339Z,101997.75
2022-12-03T04:26:30.692Z,102001.94
2022-12-03T04:28:57.843Z,101989.00
2022-12-03T04:31:43.276Z,102003.25
2022-12-03T04:34:29.507Z,102000.00
2022-12-03T04:36:56.341Z,101994.47
2022-12-03T04:39:23.239Z,101993.03
2022-12-03T04:41:50.068Z,102003.25
2022-12-03T04:44:35.613Z,101995.16
2022-12-03T04:47:32.291Z,101998.06
2022-12-03T04:50:01.290Z,102011.50
2022-12-03T04:52:28.110Z,101989.94
2022-12-03T04:54:55.345Z,102007.13
2022-12-03T04:57:22.483Z,101995.78
2022-12-03T04:59:49.510Z,101997.09
2022-12-03T05:02:16.965Z,102012.94
2022-12-03T05:04:44.030Z,102003.09
2022-12-03T05:07:10.858Z,102003.09
2022-12-03T05:09:37.700Z,101988.00
2022-12-03T05:12:04.906Z,101987.06
2022-12-03T05:14:31.742Z,101996.75
2022-12-03T05:16:58.695Z,101998.69
2022-12-03T05:19:45.540Z,102000.31
2022-12-03T05:22:12.566Z,101995.13
2022-12-03T05:24:39.656Z,102002.28
2022-12-03T05:27:06.497Z,101988.66
2022-12-03T05:29:33.556Z,101994.50
2022-12-03T05:32:00.391Z,101979.94
2022-12-03T05:34:27.225Z,101998.69
2022-12-03T05:36:54.068Z,101994.16
2022-12-03T05:39:20.916Z,101995.13
2022-12-03T05:42:06.002Z,101992.88
2022-12-03T05:44:32.995Z,101988.97
2022-12-03T05:46:59.992Z,101982.00
2022-12-03T05:49:27.400Z,101981.69
2022-12-03T05:51:58.413Z,101975.38
2022-12-03T05:54:25.988Z,101984.13
2022-12-03T05:56:52.816Z,101984.59
2022-12-03T05:59:19.674Z,101977.63
2022-12-03T06:01:46.579Z,101987.50
2022-12-03T06:04:13.440Z,101983.81
2022-12-03T06:06:40.453Z,101976.34
2022-12-03T06:09:07.479Z,101979.91
2022-12-03T06:11:35.049Z,101968.41
2022-12-03T06:14:02.233Z,101967.94
2022-12-03T06:16:29.317Z,101979.91
2022-12-03T06:18:56.379Z,101978.13
2022-12-03T06:21:23.250Z,101966.94
2022-12-03T06:23:50.101Z,101970.34
2022-12-03T06:26:17.087Z,101970.50
2022-12-03T06:28:46.329Z,101979.56
2022-12-03T06:31:13.712Z,101975.19
2022-12-03T06:33:40.696Z,101969.03
2022-12-03T06:36:07.924Z,101963.72
2022-12-03T06:38:34.922Z,101974.91
2022-12-03T06:41:01.757Z,101972.94
2022-12-03T06:43:30.810Z,101976.50
2022-12-03T06:45:57.854Z,101976.69
2022-12-03T06:48:24.699Z,101978.13
2022-12-03T06:50:51.588Z,101971.00
2022-12-03T06:53:18.600Z,101976.97
2022-12-03T06:55:45.606Z,101972.13
2022-12-03T06:58:12.422Z,101971.81
2022-12-03T07:00:39.458Z,101978.75
2022-12-03T07:03:06.366Z,101962.25
2022-12-03T07:05:33.251Z,101968.56
2022-12-03T07:08:00.329Z,101971.16
2022-12-03T07:10:27.296Z,101960.31
2022-12-03T07:12:54.159Z,101960.31
2022-12-03T07:15:21.182Z,101966.31
2022-12-03T07:17:48.226Z,101965.16
2022-12-03T07:20:16.198Z,101980.06
2022-12-03T07:22:43.338Z,101973.59
2022-12-03T07:25:12.331Z,101979.41
2022-12-03T07:27:39.153Z,101978.47
2022-12-03T07:30:07.982Z,101969.22
2022-12-03T07:32:34.809Z,101962.75
2022-12-03T07:35:02.800Z,101970.50
2022-12-03T07:37:29.630Z,101968.88
2022-12-03T07:39:56.630Z,101973.75
2022-12-03T07:42:23.512Z,101973.41
2022-12-03T07:44:50.702Z,101982.84
2022-12-03T07:47:17.910Z,101966.78
2022-12-03T07:49:44.737Z,101967.28
2022-12-03T07:52:11.720Z,101966.13
2022-12-03T07:54:38.561Z,101965.84
2022-12-03T07:57:05.427Z,101965.31
2022-12-03T07:59:32.412Z,101966.13
2022-12-03T08:01:59.320Z,101967.44
2022-12-03T08:04:26.377Z,101977.13
2022-12-03T08:06:53.378Z,101975.38
2022-12-03T08:09:20.624Z,101972.47
2022-12-03T08:11:48.883Z,101971.16
2022-12-03T08:14:19.101Z,101973.09
2022-12-03T08:16:47.805Z,101976.81
2022-12-03T08:19:17.997Z,101979.09
2022-12-03T08:21:45.296Z,101981.69
2022-12-03T08:24:20.607Z,101986.72
2022-12-03T08:26:49.491Z,101990.41
2022-12-03T08:29:19.041Z,101989.78
2022-12-03T08:31:49.850Z,101989.59
2022-12-03T08:34:17.536Z,101994.47
2022-12-03T08:36:45.747Z,101991.56
2022-12-03T08:39:29.650Z,101987.19
2022-12-03T08:42:34.760Z,101992.84
2022-12-03T08:45:29.337Z,101994.47
2022-12-03T08:47:57.848Z,101985.91
2022-12-03T08:50:35.853Z,101977.63
2022-12-03T08:53:25.544Z,101992.22
2022-12-03T08:55:57.066Z,101992.72
2022-12-03T08:58:36.421Z,101987.06
2022-12-03T09:01:17.898Z,101980.06
2022-12-03T09:03:52.109Z,101988.16
2022-12-03T09:06:19.044Z,101994.50
2022-12-03T09:08:46.165Z,101998.69
2022-12-03T09:11:14.266Z,101988.97
2022-12-03T09:13:41.082Z,101995.47
2022-12-03T09:16:08.141Z,101988.81
2022-12-03T09:18:35.007Z,101989.63
2022-12-03T09:21:02.004Z,101995.78
2022-12-03T09:23:28.839Z,101993.84
2022-12-03T09:25:55.650Z,101985.25
2022-12-03T09:28:22.553Z,101992.38
2022-12-03T09:30:49.559Z,101991.56
2022-12-03T09:33:16.647Z,101983.47
2022-12-03T09:35:43.512Z,101988.00
2022-12-03T09:38:10.955Z,101986.41
2022-12-03T09:40:37.831Z,101977.00
2022-12-03T09:43:05.163Z,101983.47
2022-12-03T09:45:32.263Z,101987.06
2022-12-03T09:48:03.703Z,101978.78
2022-12-03T09:50:31.840Z,101969.22
2022-12-03T09:53:03.704Z,101974.56
2022-12-03T09:55:31.071Z,101964.84
2022-12-03T09:57:58.520Z,101972.16
2022-12-03T10:00:29.542Z,101970.53
2022-12-03T10:03:04.364Z,101962.41
2022-12-03T10:05:31.342Z,101973.09
2022-12-03T10:08:06.365Z,101964.03
2022-12-03T10:10:36.393Z,101957.56
2022-12-03T10:13:05.478Z,101957.41
2022-12-03T10:15:32.841Z,101946.38
2022-12-03T10:18:16.510Z,101944.91
2022-12-03T10:20:43.595Z,101943.13
2022-12-03T10:23:23.381Z,101954.50
2022-12-03T10:25:59.551Z,101935.69
2022-12-03T10:28:33.597Z,101937.63
2022-12-03T10:31:03.788Z,101935.84
2022-12-03T10:33:43.065Z,101922.41
2022-12-03T10:36:19.089Z,101917.06
2022-12-03T10:38:46.318Z,101911.88
2022-12-03T10:41:28.828Z,101912.34
2022-12-03T10:44:14.311Z,101907.81
2022-12-03T10:46:41.563Z,101914.81
2022-12-03T10:49:18.505Z,101898.59
2022-12-03T10:51:47.504Z,101906.69
2022-12-03T10:54:19.500Z,101896.97
2022-12-03T10:56:48.391Z,101894.53
2022-12-03T10:59:20.630Z,101899.41
2022-12-03T11:01:48.228Z,101894.88
2022-12-03T11:04:33.738Z,101894.22
2022-12-03T11:07:03.185Z,101884.50
2022-12-03T11:09:33.224Z,101887.25
2022-12-03T11:12:17.290Z,101884.66
2022-12-03T11:14:54.350Z,101881.25
2022-12-03T11:17:45.634Z,101881.88
2022-12-03T11:20:32.328Z,101881.06
2022-12-03T11:23:00.086Z,101874.13
2022-12-03T11:25:26.915Z,101881.22
2022-12-03T11:28:11.820Z,101869.41
2022-12-03T11:30:51.559Z,101869.75
2022-12-03T11:33:30.832Z,101856.59
2022-12-03T11:36:03.529Z,101856.09
2022-12-03T11:38:52.994Z,101864.78
2022-12-03T11:41:24.979Z,101860.47
2022-12-03T11:43:51.755Z,101849.78
2022-12-03T11:46:30.902Z,101864.03
2022-12-03T11:48:59.941Z,101858.72
2022-12-03T11:51:30.333Z,101847.50
2022-12-03T11:54:00.075Z,101840.41
2022-12-03T11:56:29.635Z,101842.50
2022-12-03T11:59:03.580Z,101847.97
2022-12-03T12:01:38.863Z,101846.41
2022-12-03T12:04:25.633Z,101838.28
2022-12-03T12:06:53.552Z,101844.81
2022-12-03T12:09:53.788Z,101831.31
2022-12-03T12:12:29.699Z,101830.16
2022-12-03T12:15:00.483Z,101830.97
2022-12-03T12:17:45.433Z,101817.69
2022-12-03T12:20:27.683Z,101818.00
2022-12-03T12:22:55.382Z,101821.75
2022-12-03T12:25:38.437Z,101809.44
2022-12-03T12:28:05.287Z,101809.03
2022-12-03T12:30:32.369Z,101806.47
2022-12-03T12:33:07.927Z,101794.84
2022-12-03T12:35:34.785Z,101798.88
2022-12-03T12:38:08.516Z,101797.25
2022-12-03T12:40:38.331Z,101800.34
2022-12-03T12:43:14.418Z,101796.31
2022-12-03T12:45:43.651Z,101793.56
2022-12-03T12:48:16.269Z,101789.97
2022-12-03T12:50:48.379Z,101794.13
2022-12-03T12:53:29.164Z,101789.16
2022-12-03T12:56:02.449Z,101803.13
2022-12-03T12:58:33.076Z,101794.16
2022-12-03T13:01:05.624Z,101794.19
2022-12-03T13:03:39.304Z,101794.53
2022-12-03T13:06:07.219Z,101789.81
2022-12-03T13:08:42.460Z,101789.47
2022-12-03T13:11:42.000Z,101772.56
2022-12-03T13:14:17.448Z,101775.16
2022-12-03T13:16:46.339Z,101780.75
2022-12-03T13:19:33.064Z,101771.94
2022-12-03T13:22:14.797Z,101775.34
2022-12-03T13:24:47.905Z,101775.63
2022-12-03T13:27:17.717Z,101777.31
2022-12-03T13:29:48.584Z,101775.41
2022-12-03T13:32:20.199Z,101771.22
2022-12-03T13:34:50.303Z,101763.03
2022-12-03T13:37:25.064Z,101766.50
2022-12-03T13:39:58.103Z,101766.03
2022-12-03T13:42:40.515Z,101758.56
2022-12-03T13:45:16.208Z,101758.44
2022-12-03T13:48:21.531Z,101746.22
2022-12-03T13:50:49.553Z,101754.34
2022-12-03T13:53:35.540Z,101756.31
2022-12-03T13:56:33.703Z,101759.53
2022-12-03T13:59:01.669Z,101754.91
2022-12-03T14:01:29.076Z,101761.53
2022-12-03T14:03:56.909Z,101753.91
2022-12-03T14:06:23.990Z,101746.59
2022-12-03T14:08:51.386Z,101744.66
2022-12-03T14:11:37.661Z,101739.34
2022-12-03T14:14:04.759Z,101744.66
2022-12-03T14:16:31.911Z,101742.06
2022-12-03T14:18:59.012Z,101745.66
2022-12-03T14:21:26.099Z,101748.75
2022-12-03T14:23:53.116Z,101748.25
2022-12-03T14:26:19.957Z,101753.88
2022-12-03T14:28:46.834Z,101749.56
2022-12-03T14:31:13.776Z,101739.38
2022-12-03T14:33:40.800Z,101738.91
2022-12-03T14:36:08.086Z,101738.38
2022-12-03T14:38:34.935Z,101740.53
2022-12-03T14:41:01.855Z,101735.97
2022-12-03T14:43:28.899Z,101738.38
2022-12-03T14:45:55.762Z,101746.16
2022-12-03T14:48:22.832Z,101742.47
2022-12-03T14:50:49.680Z,101728.69
2022-12-03T14:53:16.702Z,101731.28
2022-12-03T14:55:45.480Z,101736.00
2022-12-03T14:58:12.746Z,101728.25
2022-12-03T15:00:39.679Z,101735.22
2022-12-03T15:03:16.685Z,101734.84
2022-12-03T15:05:43.817Z,101737.63
2022-12-03T15:08:10.725Z,101736.03
2022-12-03T15:10:37.599Z,101736.19
2022-12-03T15:13:04.445Z,101744.28
2022-12-03T15:15:31.274Z,101738.28
2022-12-03T15:17:58.293Z,101738.66
2022-12-03T15:20:25.425Z,101740.75
2022-12-03T15:22:52.438Z,101734.72
2022-12-03T15:25:24.308Z,101741.06
2022-12-03T15:27:51.649Z,101740.25
2022-12-03T15:30:20.531Z,101731.50
2022-12-03T15:32:47.589Z,101741.25
2022-12-03T15:35:18.284Z,101741.91
2022-12-03T15:37:45.576Z,101744.63
2022-12-03T15:40:13.469Z,101751.28
2022-12-03T15:42:40.488Z,101744.50
2022-12-03T15:45:13.482Z,101748.03
2022-12-03T15:47:41.902Z,101734.94
2022-12-03T15:50:09.281Z,101745.00
2022-12-03T15:52:36.440Z,101734.94
2022-12-03T15:55:03.910Z,101734.13
2022-12-03T15:57:31.198Z,101729.41
2022-12-03T15:59:58.036Z,101737.69
2022-12-03T16:02:25.121Z,101732.22
2022-12-03T16:04:52.008Z,101722.47
2022-12-03T16:07:18.904Z,101726.72
2022-12-03T16:09:46.065Z,101724.28
2022-12-03T16:12:12.924Z,101735.63
2022-12-03T16:14:39.786Z,101735.94
2022-12-03T16:17:06.642Z,101742.41
2022-12-03T16:19:33.542Z,101739.16
2022-12-03T16:22:00.740Z,101740.28
2022-12-03T16:24:30.007Z,101740.63
2022-12-03T16:26:58.658Z,101737.22
2022-12-03T16:29:25.672Z,101738.69
2022-12-03T16:31:52.709Z,101734.63
2022-12-03T16:34:20.027Z,101742.91
2022-12-03T16:36:47.616Z,101735.13
2022-12-03T16:39:14.716Z,101734.31
2022-12-03T16:41:42.292Z,101735.63
2022-12-03T16:44:19.811Z,101733.03
2022-12-03T16:46:46.937Z,101721.53
2022-12-03T16:49:13.891Z,101726.38
2022-12-03T16:51:40.725Z,101723.16
2022-12-03T16:54:07.728Z,101718.28
2022-12-03T16:56:44.902Z,101724.44
2022-12-03T16:59:11.938Z,101720.88
2022-12-03T17:01:38.823Z,101719.44
2022-12-03T17:04:05.718Z,101722.53
2022-12-03T17:06:32.860Z,101719.63
2022-12-03T17:08:59.851Z,101728.19
2022-12-03T17:11:26.684Z,101728.66
2022-12-03T17:13:53.637Z,101727.69
2022-12-03T17:16:20.621Z,101715.25
2022-12-03T17:18:49.405Z,101721.22
2022-12-03T17:21:16.423Z,101721.53
2022-12-03T17:23:44.658Z,101723.00
2022-12-03T17:26:14.275Z,101723.81
2022-12-03T17:28:41.274Z,101732.56
2022-12-03T17:31:08.776Z,101724.78
2022-12-03T17:33:36.107Z,101716.41
2022-12-03T17:36:03.958Z,101715.91
2022-12-03T17:38:39.098Z,101716.53
2022-12-03T17:41:07.422Z,101710.88
2022-12-03T17:43:34.629Z,101708.13
2022-12-03T17:46:01.536Z,101699.72
2022-12-03T17:48:31.273Z,101693.22
2022-12-03T17:50:58.782Z,101696.94
2022-12-03T17:53:25.819Z,101705.38
2022-12-03T17:55:54.045Z,101698.59
2022-12-03T17:58:24.148Z,101700.38
2022-12-03T18:00:58.611Z,101698.13
2022-12-03T18:03:28.926Z,101699.41
2022-12-03T18:05:55.788Z,101702.19
2022-12-03T18:08:22.888Z,101694.09
2022-12-03T18:10:50.137Z,101694.41
2022-12-03T18:13:17.626Z,101689.88
2022-12-03T18:15:45.180Z,101694.56
2022-12-03T18:18:12.039Z,101695.38
2022-12-03T18:20:39.019Z,101684.22
2022-12-03T18:23:05.875Z,101690.53
2022-12-03T18:25:33.106Z,101683.09
2022-12-03T18:28:00.125Z,101686.50
2022-12-03T18:30:27.098Z,101685.69
2022-12-03T18:32:54.385Z,101688.75
2022-12-03T18:35:21.414Z,101685.03
2022-12-03T18:37:51.029Z,101683.91
2022-12-03T18:40:22.490Z,101679.50
2022-12-03T18:42:49.376Z,101678.56
2022-12-03T18:45:16.960Z,101684.41
2022-12-03T18:47:44.483Z,101670.78
2022-12-03T18:50:12.260Z,101675.16
2022-12-03T18:52:39.554Z,101665.63
2022-12-03T18:55:07.231Z,101666.28
2022-12-03T18:57:34.280Z,101666.75
2022-12-03T19:00:01.294Z,101675.31
2022-12-03T19:05:15.166Z,101677.44
2022-12-03T19:07:43.369Z,101676.47
2022-12-03T19:10:11.419Z,101669.50
2022-12-03T19:12:39.015Z,101665.09
2022-12-03T19:15:06.614Z,101666.25
2022-12-03T19:17:33.627Z,101666.56
2022-12-03T19:20:00.535Z,101669.47
2022-12-03T19:22:27.541Z,101668.22
2022-12-03T19:24:54.543Z,101678.56
2022-12-03T19:27:21.345Z,101672.72
2022-12-03T19:29:48.897Z,101667.22
2022-12-03T19:32:15.911Z,101668.03
2022-12-03T19:34:42.776Z,101670.63
2022-12-03T19:37:09.814Z,101670.44
2022-12-03T19:39:36.671Z,101673.38
2022-12-03T19:42:03.741Z,101675.81
2022-12-03T19:44:30.616Z,101675.66
2022-12-03T19:46:57.657Z,101675.63
2022-12-03T19:49:24.562Z,101677.91
2022-12-03T19:51:51.564Z,101674.81
2022-12-03T19:54:18.531Z,101675.31
2022-12-03T19:56:46.196Z,101681.28
2022-12-03T19:59:13.931Z,101669.81
2022-12-03T20:01:42.917Z,101665.75
2022-12-03T20:04:11.498Z,101670.13
2022-12-03T20:06:39.646Z,101670.78
2022-12-03T20:09:11.279Z,101672.72
2022-12-03T20:11:40.271Z,101659.97
2022-12-03T20:14:10.953Z,101662.06
2022-12-03T20:16:37.856Z,101663.97
2022-12-03T20:19:07.484Z,101669.69
2022-12-03T20:21:37.224Z,101668.88
2022-12-03T20:24:05.513Z,101671.94
2022-12-03T20:26:32.995Z,101664.19
2022-12-03T20:29:00.392Z,101666.28
2022-12-03T20:31:30.654Z,101669.34
2022-12-03T20:34:00.963Z,101673.06
2022-12-03T20:36:29.893Z,101665.00
2022-12-03T20:38:59.324Z,101662.72
2022-12-03T20:41:26.687Z,101670.00
2022-12-03T20:43:54.299Z,101661.09
2022-12-03T20:46:27.727Z,101669.66
2022-12-03T20:48:55.371Z,101660.13
2022-12-03T20:51:25.597Z,101653.34
2022-12-03T20:53:52.643Z,101657.06
2022-12-03T20:56:23.350Z,101652.22
2022-12-03T20:58:50.456Z,101649.47
2022-12-03T21:01:26.578Z,101652.69
2022-12-03T21:03:57.860Z,101650.75
2022-12-03T21:06:27.963Z,101646.72
2022-12-03T21:08:56.093Z,101650.44
2022-12-03T21:11:26.034Z,101644.78
2022-12-03T21:13:54.425Z,101642.81
2022-12-03T21:16:39.794Z,101649.78
2022-12-03T21:19:11.788Z,101640.41
2022-12-03T21:21:38.796Z,101638.78
2022-12-03T21:24:05.812Z,101646.22
2022-12-03T21:26:32.696Z,101639.78
2022-12-03T21:28:59.610Z,101642.50
2022-12-03T21:31:26.986Z,101647.53
2022-12-03T21:33:55.314Z,101635.53
2022-12-03T21:36:23.863Z,101635.22
2022-12-03T21:38:51.696Z,101630.69
2022-12-03T21:41:18.549Z,101629.41
2022-12-03T21:43:45.370Z,101628.75
2022-12-03T21:47:11.575Z,101628.94
2022-12-03T21:49:01.901Z,101633.13
2022-12-03T21:51:28.982Z,101631.19
2022-12-03T21:53:55.955Z,101622.91
2022-12-03T21:56:22.971Z,101634.09
2022-12-03T21:58:49.986Z,101633.94
2022-12-03T22:01:21.169Z,101627.16
2022-12-03T22:03:48.941Z,101638.47
2022-12-03T22:06:17.152Z,101632.16
2022-12-03T22:08:45.200Z,101633.63
2022-12-03T22:11:17.101Z,101630.41
2022-12-03T22:13:45.729Z,101634.72
2022-12-03T22:16:17.156Z,101629.28
2022-12-03T22:18:44.391Z,101626.34
2022-12-03T22:21:14.345Z,101632.97
2022-12-03T22:23:41.594Z,101622.78
2022-12-03T22:26:12.652Z,101632.66
2022-12-03T22:28:43.654Z,101626.50
2022-12-03T22:31:11.387Z,101621.78
2022-12-03T22:33:39.590Z,101619.88
2022-12-03T22:36:17.972Z,101615.81
2022-12-03T22:38:47.243Z,101609.22
2022-12-03T22:41:14.708Z,101606.78
2022-12-03T22:43:41.805Z,101606.94
2022-12-03T22:46:12.178Z,101617.13
2022-12-03T22:48:40.337Z,101620.03
2022-12-03T22:51:14.943Z,101608.22
2022-12-03T22:53:42.165Z,101602.88
2022-12-03T22:56:09.371Z,101601.75
2022-12-03T22:58:38.585Z,101604.19
2022-12-03T23:01:06.691Z,101598.38
2022-12-03T23:03:33.965Z,101594.81
2022-12-03T23:06:00.869Z,101599.50
2022-12-03T23:08:27.921Z,101607.44
2022-12-03T23:10:54.923Z,101600.47
2022-12-03T23:13:21.863Z,101611.00
2022-12-03T23:15:52.044Z,101603.53
2022-12-03T23:18:20.335Z,101598.69
2022-12-03T23:20:50.425Z,101593.19
2022-12-03T23:23:19.136Z,101597.25
2022-12-03T23:25:58.271Z,101620.22
2022-12-03T23:28:25.499Z,101599.34
2022-12-03T23:30:52.581Z,101599.97
2022-12-03T23:33:19.991Z,101599.66
2022-12-03T23:35:47.041Z,101593.69
2022-12-03T23:38:14.054Z,101596.44
2022-12-03T23:40:47.708Z,101593.19
2022-12-03T23:43:15.423Z,101597.06
2022-12-03T23:45:42.488Z,101596.75
2022-12-03T23:48:09.409Z,101584.44
2022-12-03T23:50:39.252Z,101592.88
2022-12-03T23:53:06.101Z,101587.38
2022-12-03T23:55:33.597Z,101589.97
2022-12-03T23:58:00.616Z,101583.03
